Time;durP1;ratioP1;P1;durP2;ratioP2;P2;SDS_P1;SDS_P2;PMS_P1;PMS_P2;Temp;Humidity;BMP_temperature;BMP_pressure;BME280_temperature;BME280_humidity;BME280_pressure;Samples;Min_cycle;Max_cycle;Signal;HPM_P1;HPM_P2
2021/11/28 00:02:19;;;;;;;56.58;24.20;;;;;;;2.43;100.00;99331.97;5166743;28;20121;-81
2021/11/28 00:04:51;;;;;;;61.05;25.45;;;;;;;2.42;100.00;99335.59;5166374;28;20037;-81
2021/11/28 00:07:43;;;;;;;60.70;25.65;;;;;;;2.39;100.00;99332.41;5167793;28;20022;-81
2021/11/28 00:13:06;;;;;;;68.53;28.27;;;;;;;2.41;100.00;99333.06;5173184;28;20018;-80
2021/11/28 00:15:38;;;;;;;65.20;26.85;;;;;;;2.39;100.00;99343.81;5183402;28;20030;-81
2021/11/28 00:18:09;;;;;;;65.68;26.08;;;;;;;2.39;100.00;99343.81;5166378;28;20117;-80
2021/11/28 00:20:40;;;;;;;63.35;25.10;;;;;;;2.43;100.00;99352.31;5166689;28;20048;-80
2021/11/28 00:23:10;;;;;;;65.55;26.00;;;;;;;2.43;100.00;99339.06;5166201;28;20018;-80
2021/11/28 00:25:41;;;;;;;68.60;27.67;;;;;;;2.43;100.00;99345.19;5164997;28;20441;-80
2021/11/28 00:28:13;;;;;;;67.30;25.83;;;;;;;2.45;100.00;99342.38;5166770;28;20034;-81
2021/11/28 00:30:43;;;;;;;67.47;26.13;;;;;;;2.46;100.00;99344.03;5177443;28;20057;-81
2021/11/28 00:33:14;;;;;;;73.00;26.30;;;;;;;2.46;100.00;99347.56;5162822;28;20371;-81
2021/11/28 00:35:45;;;;;;;68.35;26.73;;;;;;;2.46;100.00;99341.41;5164581;28;20114;-81
2021/11/28 00:38:16;;;;;;;74.22;28.80;;;;;;;2.49;100.00;99346.41;5164507;28;20050;-81
2021/11/28 00:40:46;;;;;;;68.07;27.90;;;;;;;2.51;100.00;99349.72;5165331;28;20477;-81
2021/11/28 00:43:18;;;;;;;74.05;27.05;;;;;;;2.51;100.00;99342.63;5165089;28;20088;-81
2021/11/28 00:45:49;;;;;;;67.85;27.05;;;;;;;2.52;100.00;99340.81;5165137;28;20026;-81
2021/11/28 00:48:23;;;;;;;67.28;27.63;;;;;;;2.51;100.00;99342.63;5169252;28;20030;-81
2021/11/28 00:51:10;;;;;;;67.80;27.02;;;;;;;2.52;100.00;99341.66;5184487;28;20026;-82
2021/11/28 00:53:41;;;;;;;74.97;27.55;;;;;;;2.52;100.00;99343.47;5174876;28;20038;-81
2021/11/28 00:56:12;;;;;;;69.00;26.42;;;;;;;2.53;100.00;99353.06;5162976;28;20057;-81
2021/11/28 00:58:44;;;;;;;75.53;27.75;;;;;;;2.52;100.00;99352.22;5164883;28;20054;-81
2021/11/28 01:01:16;;;;;;;77.55;28.23;;;;;;;2.53;100.00;99361.00;5163185;28;20482;-82
2021/11/28 01:03:47;;;;;;;73.53;26.83;;;;;;;2.55;100.00;99366.97;5163136;28;20022;-81
2021/11/28 01:06:17;;;;;;;63.85;25.27;;;;;;;2.56;100.00;99369.50;5162501;28;20032;-81
2021/11/28 01:08:47;;;;;;;69.68;26.70;;;;;;;2.60;100.00;99372.66;5177546;28;20401;-81
2021/11/28 01:11:20;;;;;;;62.80;26.08;;;;;;;2.62;100.00;99375.16;5176374;28;20441;-81
2021/11/28 01:13:52;;;;;;;67.90;25.77;;;;;;;2.62;100.00;99385.75;5175603;28;20503;-81
2021/11/28 01:16:23;;;;;;;74.03;27.08;;;;;;;2.60;100.00;99381.41;5174087;28;20469;-81
2021/11/28 01:18:53;;;;;;;66.80;25.42;;;;;;;2.62;100.00;99383.94;5162736;28;20087;-81
2021/11/28 01:21:24;;;;;;;69.47;27.20;;;;;;;2.62;100.00;99388.41;5163699;28;20113;-82
2021/11/28 01:23:55;;;;;;;70.93;28.30;;;;;;;2.60;100.00;99399.13;5167158;28;20030;-81
2021/11/28 01:26:27;;;;;;;75.80;29.70;;;;;;;2.59;100.00;99405.41;5182611;28;20025;-81
2021/11/28 01:28:58;;;;;;;71.88;27.85;;;;;;;2.60;100.00;99404.41;5183758;28;20481;-81
2021/11/28 01:31:29;;;;;;;72.65;27.83;;;;;;;2.61;100.00;99403.47;5183535;28;20022;-82
2021/11/28 01:33:59;;;;;;;67.60;28.27;;;;;;;2.63;100.00;99403.31;5182515;28;20033;-81
2021/11/28 01:36:30;;;;;;;74.72;28.80;;;;;;;2.62;100.00;99409.59;5186231;28;20068;-81
2021/11/28 01:39:03;;;;;;;76.78;30.00;;;;;;;2.62;100.00;99417.53;5187773;28;20029;-81
2021/11/28 01:41:34;;;;;;;78.05;28.55;;;;;;;2.62;100.00;99417.53;5192744;28;20041;-81
2021/11/28 01:44:06;;;;;;;75.38;27.90;;;;;;;2.63;100.00;99420.00;5195459;28;20037;-81
2021/11/28 01:46:36;;;;;;;71.28;27.45;;;;;;;2.64;100.00;99419.03;5191518;28;20040;-79
2021/11/28 01:49:10;;;;;;;79.05;29.73;;;;;;;2.65;100.00;99423.34;5207174;28;20033;-80
2021/11/28 01:51:40;;;;;;;77.68;29.33;;;;;;;2.66;100.00;99421.50;5186557;28;20026;-82
2021/11/28 01:54:13;;;;;;;84.68;31.05;;;;;;;2.65;100.00;99420.69;5189685;28;20113;-80
2021/11/28 01:56:49;;;;;;;73.85;27.80;;;;;;;2.69;100.00;99432.66;5179845;28;20030;-81
2021/11/28 01:59:19;;;;;;;78.57;30.52;;;;;;;2.70;100.00;99436.97;5199808;28;20073;-80
2021/11/28 02:01:50;;;;;;;79.75;29.55;;;;;;;2.81;100.00;99439.41;5192594;28;20481;-79
2021/11/28 02:04:21;;;;;;;76.97;28.83;;;;;;;2.91;100.00;99441.13;5191351;28;20026;-79
2021/11/28 02:06:51;;;;;;;76.28;28.05;;;;;;;2.98;100.00;99444.84;5191023;28;20382;-80
2021/11/28 02:09:38;;;;;;;72.93;26.80;;;;;;;3.01;100.00;99433.94;5189491;28;20056;-79
2021/11/28 02:12:29;;;;;;;84.40;27.95;;;;;;;3.04;100.00;99444.25;5173830;28;20041;-81
2021/11/28 02:15:09;;;;;;;85.85;28.60;;;;;;;3.03;100.00;99450.53;5183183;28;20032;-81
2021/11/28 02:17:41;;;;;;;83.38;28.65;;;;;;;3.00;100.00;99456.94;5176342;28;20069;-80
2021/11/28 02:20:12;;;;;;;88.03;29.95;;;;;;;3.01;100.00;99456.00;5173210;28;20113;-80
2021/11/28 02:23:00;;;;;;;85.43;31.10;;;;;;;2.98;100.00;99464.22;5165507;28;20073;-80
2021/11/28 02:25:31;;;;;;;79.78;29.13;;;;;;;2.98;100.00;99460.75;5165464;28;20025;-80
2021/11/28 02:28:01;;;;;;;92.18;29.95;;;;;;;2.95;100.00;99466.34;5164135;28;20417;-80
2021/11/28 02:30:32;;;;;;;90.43;31.33;;;;;;;2.87;100.00;99464.44;5164625;28;20022;-80
2021/11/28 02:33:03;;;;;;;97.38;30.80;;;;;;;2.95;100.00;99463.69;5162814;28;20022;-80
2021/11/28 02:35:34;;;;;;;93.18;31.17;;;;;;;2.90;100.00;99463.31;5165655;28;20425;-80
2021/11/28 02:38:07;;;;;;;93.95;31.88;;;;;;;2.89;100.00;99467.78;5178817;28;20030;-80
2021/11/28 02:40:40;;;;;;;96.35;30.95;;;;;;;2.85;100.00;99472.53;5165357;28;20034;-79
2021/11/28 02:43:11;;;;;;;101.53;32.80;;;;;;;2.85;100.00;99474.34;5163622;28;20026;-80
2021/11/28 02:45:42;;;;;;;94.45;32.15;;;;;;;2.87;100.00;99482.16;5163775;28;20049;-80
2021/11/28 02:48:15;;;;;;;99.82;33.10;;;;;;;2.89;100.00;99477.53;5164818;28;20449;-80
2021/11/28 02:50:46;;;;;;;107.65;34.83;;;;;;;2.87;100.00;99474.22;5164383;28;20540;-81
2021/11/28 02:53:16;;;;;;;106.65;33.60;;;;;;;2.82;100.00;99483.44;5165050;28;20026;-80
2021/11/28 02:55:51;;;;;;;95.32;31.98;;;;;;;2.85;100.00;99484.94;5164269;28;20042;-80
2021/11/28 02:58:24;;;;;;;100.43;33.03;;;;;;;2.81;100.00;99486.22;5165146;28;20113;-80
2021/11/28 03:00:58;;;;;;;92.82;32.13;;;;;;;2.80;100.00;99493.34;5164770;28;20512;-82
2021/11/28 03:03:29;;;;;;;99.22;32.65;;;;;;;2.87;100.00;99490.94;5162967;28;20022;-80
2021/11/28 03:06:00;;;;;;;99.40;32.25;;;;;;;2.83;100.00;99498.34;5164551;28;20076;-80
2021/11/28 03:08:32;;;;;;;109.95;32.05;;;;;;;2.83;100.00;99506.28;5177498;28;20030;-80
2021/11/28 03:11:04;;;;;;;85.65;30.02;;;;;;;2.84;100.00;99507.97;5182218;28;20037;-80
2021/11/28 03:13:38;;;;;;;93.63;29.38;;;;;;;2.80;100.00;99498.63;5177089;28;20036;-80
2021/11/28 03:16:12;;;;;;;85.23;28.43;;;;;;;2.82;100.00;99515.22;5181073;28;20112;-81
2021/11/28 03:18:43;;;;;;;80.15;29.23;;;;;;;2.82;100.00;99504.63;5169169;28;20281;-80
2021/11/28 03:21:19;;;;;;;82.90;28.10;;;;;;;2.85;100.00;99504.31;5169883;28;20493;-80
2021/11/28 03:23:52;;;;;;;76.82;26.05;;;;;;;2.84;100.00;99513.25;5182786;28;20022;-80
2021/11/28 03:26:25;;;;;;;73.22;25.35;;;;;;;2.84;100.00;99515.06;5169096;28;20050;-80
2021/11/28 03:28:57;;;;;;;71.60;24.65;;;;;;;2.81;100.00;99518.88;5169603;28;20547;-80
2021/11/28 03:31:31;;;;;;;65.50;24.38;;;;;;;2.78;100.00;99521.81;5167529;28;20057;-81
2021/11/28 03:34:03;;;;;;;57.90;23.13;;;;;;;2.84;100.00;99529.16;5169604;28;20493;-80
2021/11/28 03:36:37;;;;;;;64.68;22.48;;;;;;;2.83;100.00;99522.19;5169854;28;20026;-81
2021/11/28 03:39:11;;;;;;;56.53;20.30;;;;;;;2.88;100.00;99527.03;5168294;28;20490;-81
2021/11/28 03:41:44;;;;;;;55.85;20.38;;;;;;;2.80;100.00;99519.00;5168013;28;20076;-79
2021/11/28 03:44:15;;;;;;;58.55;21.48;;;;;;;2.72;100.00;99522.41;5181264;28;20200;-80
2021/11/28 03:46:46;;;;;;;50.58;19.73;;;;;;;2.68;100.00;99521.03;5168545;28;20295;-79
2021/11/28 03:49:16;;;;;;;56.15;20.95;;;;;;;2.74;100.00;99525.72;5169191;28;20033;-80
2021/11/28 03:51:47;;;;;;;61.80;22.55;;;;;;;2.74;100.00;99532.84;5168969;28;20106;-80
2021/11/28 03:54:17;;;;;;;56.47;20.10;;;;;;;2.77;100.00;99535.19;5168987;28;20026;-80
2021/11/28 03:56:48;;;;;;;56.58;21.00;;;;;;;2.71;100.00;99531.34;5169466;28;20037;-79
2021/11/28 03:59:18;;;;;;;60.50;21.50;;;;;;;2.70;100.00;99531.47;5170269;28;20105;-80
2021/11/28 04:01:49;;;;;;;58.13;21.40;;;;;;;2.77;100.00;99533.38;5170906;28;20042;-79
2021/11/28 04:04:19;;;;;;;54.80;20.80;;;;;;;2.75;100.00;99527.38;5170029;28;20124;-82
2021/11/28 04:06:50;;;;;;;55.97;21.83;;;;;;;2.83;100.00;99540.72;5180314;28;20034;-79
2021/11/28 04:09:21;;;;;;;65.90;23.05;;;;;;;2.80;100.00;99543.66;5189593;28;20057;-79
2021/11/28 04:11:51;;;;;;;65.10;22.92;;;;;;;2.79;100.00;99538.53;5177354;28;20031;-79
2021/11/28 04:14:22;;;;;;;61.35;22.35;;;;;;;2.81;100.00;99544.50;5185056;28;20022;-80
2021/11/28 04:16:53;;;;;;;73.65;25.52;;;;;;;2.80;100.00;99548.13;5176507;28;20037;-81
2021/11/28 04:19:23;;;;;;;71.10;24.45;;;;;;;2.80;100.00;99548.97;5168467;28;20034;-79
2021/11/28 04:21:54;;;;;;;76.38;26.95;;;;;;;2.80;100.00;99542.84;5169932;28;20110;-79
2021/11/28 04:24:25;;;;;;;69.13;27.83;;;;;;;2.78;100.00;99550.09;5169144;28;20054;-81
2021/11/28 04:26:55;;;;;;;73.80;26.38;;;;;;;2.79;100.00;99543.81;5169117;28;20027;-80
2021/11/28 04:29:26;;;;;;;73.30;26.50;;;;;;;2.80;100.00;99551.59;5171032;28;20509;-80
2021/11/28 04:31:57;;;;;;;94.38;29.50;;;;;;;2.81;100.00;99557.72;5171368;28;20065;-81
2021/11/28 04:34:27;;;;;;;93.53;30.60;;;;;;;2.85;100.00;99561.75;5170138;28;20548;-80
2021/11/28 04:36:58;;;;;;;74.78;27.00;;;;;;;2.81;100.00;99560.38;5169661;28;20085;-80
2021/11/28 04:39:29;;;;;;;86.95;28.05;;;;;;;2.84;100.00;99562.75;5170475;28;20084;-80
2021/11/28 04:42:00;;;;;;;79.13;28.63;;;;;;;2.83;100.00;99561.09;5170763;28;20287;-81
2021/11/28 04:44:31;;;;;;;86.10;29.80;;;;;;;2.76;100.00;99558.22;5171115;28;20289;-80
2021/11/28 04:47:02;;;;;;;82.25;27.55;;;;;;;2.78;100.00;99566.81;5169572;28;20106;-80
2021/11/28 04:49:33;;;;;;;100.30;31.38;;;;;;;2.74;100.00;99568.09;5170674;28;20062;-79
2021/11/28 04:52:03;;;;;;;101.28;32.67;;;;;;;2.76;100.00;99555.56;5179508;28;20022;-81
2021/11/28 04:54:34;;;;;;;101.07;33.08;;;;;;;2.74;100.00;99570.75;5173077;28;20533;-80
2021/11/28 04:57:05;;;;;;;96.25;31.60;;;;;;;2.76;100.00;99573.22;5168708;28;20033;-79
2021/11/28 04:59:36;;;;;;;98.80;33.53;;;;;;;2.76;100.00;99575.88;5185263;28;20097;-80
2021/11/28 05:02:06;;;;;;;97.05;31.00;;;;;;;2.79;100.00;99575.59;5189709;28;20105;-79
2021/11/28 05:04:37;;;;;;;100.65;32.15;;;;;;;2.76;100.00;99575.88;5170924;28;20516;-80
2021/11/28 05:07:07;;;;;;;98.13;32.35;;;;;;;2.71;100.00;99572.84;5169865;28;20037;-79
2021/11/28 05:09:38;;;;;;;100.93;32.03;;;;;;;2.68;100.00;99571.34;5190153;28;20362;-81
2021/11/28 05:12:09;;;;;;;114.03;35.60;;;;;;;2.68;100.00;99574.00;5174805;28;20030;-81
2021/11/28 05:14:39;;;;;;;103.05;32.75;;;;;;;2.68;100.00;99584.56;5188460;28;20583;-79
2021/11/28 05:17:09;;;;;;;108.25;34.03;;;;;;;2.71;100.00;99581.66;5174972;28;20062;-79
2021/11/28 05:19:40;;;;;;;99.80;32.92;;;;;;;2.72;100.00;99585.13;5170396;28;20102;-81
2021/11/28 05:22:10;;;;;;;94.82;31.15;;;;;;;2.70;100.00;99595.00;5170291;28;20050;-80
2021/11/28 05:24:41;;;;;;;96.43;31.10;;;;;;;2.71;100.00;99589.59;5170387;28;20088;-80
2021/11/28 05:27:12;;;;;;;100.32;31.10;;;;;;;2.70;100.00;99602.97;5169369;28;20037;-80
2021/11/28 05:29:42;;;;;;;97.68;30.50;;;;;;;2.70;100.00;99603.78;5169761;28;20022;-82
2021/11/28 05:32:14;;;;;;;90.70;29.27;;;;;;;2.68;100.00;99599.63;5170593;28;20418;-81
2021/11/28 05:34:45;;;;;;;96.65;30.52;;;;;;;2.68;100.00;99615.53;5169584;28;20033;-80
2021/11/28 05:37:15;;;;;;;90.18;29.58;;;;;;;2.68;100.00;99616.34;5169615;28;20058;-80
2021/11/28 05:39:46;;;;;;;82.63;29.30;;;;;;;2.73;100.00;99622.06;5169682;28;20121;-79
2021/11/28 05:42:18;;;;;;;84.90;28.10;;;;;;;2.74;100.00;99626.38;5169749;28;20078;-80
2021/11/28 05:44:48;;;;;;;89.38;27.52;;;;;;;2.73;100.00;99631.81;5168612;28;20018;-79
2021/11/28 05:47:19;;;;;;;81.47;26.80;;;;;;;2.76;100.00;99627.06;5167606;28;20030;-80
2021/11/28 05:49:49;;;;;;;71.43;25.55;;;;;;;2.75;100.00;99635.13;5168987;28;20027;-80
2021/11/28 05:52:20;;;;;;;76.95;25.60;;;;;;;2.74;100.00;99636.94;5169595;28;20113;-80
2021/11/28 05:54:53;;;;;;;75.55;26.02;;;;;;;2.75;100.00;99646.56;5169709;28;20026;-79
2021/11/28 05:57:23;;;;;;;75.55;25.48;;;;;;;2.74;100.00;99647.53;5165437;28;20066;-85
2021/11/28 05:59:54;;;;;;;71.10;24.52;;;;;;;2.74;100.00;99644.91;5166425;28;20050;-77
2021/11/28 06:02:25;;;;;;;74.75;27.08;;;;;;;2.71;100.00;99649.66;5174863;28;20030;-82
2021/11/28 06:04:55;;;;;;;82.65;27.17;;;;;;;2.75;100.00;99656.31;5162303;28;20018;-78
2021/11/28 06:07:26;;;;;;;78.55;25.63;;;;;;;2.79;100.00;99657.72;5163524;28;20036;-79
2021/11/28 06:09:56;;;;;;;80.25;27.27;;;;;;;2.81;100.00;99653.09;5181290;28;20018;-78
2021/11/28 06:12:27;;;;;;;80.40;28.15;;;;;;;2.79;100.00;99652.41;5165522;28;20062;-80
2021/11/28 06:14:57;;;;;;;75.13;25.48;;;;;;;2.86;100.00;99666.72;5181999;28;20048;-79
2021/11/28 06:17:28;;;;;;;79.43;27.25;;;;;;;2.87;100.00;99668.44;5162294;28;20019;-79
2021/11/28 06:19:58;;;;;;;75.57;27.40;;;;;;;2.81;100.00;99667.19;5162227;28;20049;-79
2021/11/28 06:22:29;;;;;;;81.85;27.83;;;;;;;2.81;100.00;99675.13;5180623;28;20024;-78
2021/11/28 06:25:00;;;;;;;86.95;28.70;;;;;;;2.72;100.00;99678.66;5181933;28;20482;-77
2021/11/28 06:27:30;;;;;;;79.97;28.52;;;;;;;2.71;100.00;99677.00;5181908;28;20037;-79
2021/11/28 06:30:01;;;;;;;83.07;28.52;;;;;;;2.66;100.00;99676.59;5182227;28;20025;-76
2021/11/28 06:32:32;;;;;;;80.88;26.42;;;;;;;2.62;100.00;99677.84;5184696;28;20022;-78
2021/11/28 06:35:05;;;;;;;79.43;27.80;;;;;;;2.59;100.00;99675.47;5187940;28;20056;-77
2021/11/28 06:37:35;;;;;;;81.22;27.30;;;;;;;2.64;100.00;99683.81;5185765;28;20037;-76
2021/11/28 06:40:07;;;;;;;76.75;24.90;;;;;;;2.64;100.00;99689.13;5181691;28;20034;-75
2021/11/28 06:42:37;;;;;;;80.55;26.52;;;;;;;2.63;100.00;99692.75;5181544;28;20072;-75
2021/11/28 06:45:09;;;;;;;79.43;26.42;;;;;;;2.63;100.00;99691.91;5181950;28;20389;-75
2021/11/28 06:47:39;;;;;;;72.95;25.88;;;;;;;2.64;100.00;99697.06;5181395;28;20477;-75
2021/11/28 06:50:10;;;;;;;81.90;24.38;;;;;;;2.71;100.00;99699.97;5181432;28;20064;-75
2021/11/28 06:52:41;;;;;;;75.38;24.88;;;;;;;2.73;100.00;99704.16;5181100;28;20036;-75
2021/11/28 06:55:12;;;;;;;72.70;25.65;;;;;;;2.77;100.00;99710.84;5181217;28;20026;-75
2021/11/28 06:57:42;;;;;;;68.20;24.52;;;;;;;2.82;100.00;99721.84;5179889;28;20640;-75
2021/11/28 07:00:13;;;;;;;76.18;25.58;;;;;;;2.87;100.00;99715.28;5179978;28;20125;-75
2021/11/28 07:02:43;;;;;;;73.82;26.67;;;;;;;2.87;100.00;99720.56;5179684;28;20022;-75
2021/11/28 07:05:14;;;;;;;68.65;24.17;;;;;;;2.89;100.00;99724.72;5181107;28;20029;-74
2021/11/28 07:07:44;;;;;;;71.82;24.55;;;;;;;2.84;100.00;99729.63;5180832;28;20040;-75
2021/11/28 07:10:15;;;;;;;70.10;24.50;;;;;;;2.77;100.00;99726.72;5181242;28;20030;-75
2021/11/28 07:12:45;;;;;;;70.82;25.13;;;;;;;2.70;100.00;99725.63;5165573;28;20485;-75
2021/11/28 07:15:16;;;;;;;75.65;26.95;;;;;;;2.66;100.00;99718.97;5180164;28;20029;-75
2021/11/28 07:17:46;;;;;;;79.30;26.98;;;;;;;2.63;100.00;99723.69;5161003;28;20022;-75
2021/11/28 07:20:17;;;;;;;80.75;25.73;;;;;;;2.68;100.00;99732.88;5160747;28;20033;-75
2021/11/28 07:22:47;;;;;;;69.93;24.25;;;;;;;2.62;100.00;99736.09;5159814;28;20011;-75
2021/11/28 07:25:18;;;;;;;71.55;26.17;;;;;;;2.66;100.00;99736.63;5160934;28;20034;-75
2021/11/28 07:27:48;;;;;;;79.43;26.20;;;;;;;2.73;100.00;99738.59;5160864;28;20022;-75
2021/11/28 07:30:19;;;;;;;74.80;25.92;;;;;;;2.75;100.00;99749.84;5160815;28;20121;-74
2021/11/28 07:32:51;;;;;;;72.82;25.92;;;;;;;2.70;100.00;99749.44;5160834;28;20038;-74
2021/11/28 07:35:21;;;;;;;68.38;25.30;;;;;;;2.73;100.00;99757.13;5160638;28;20566;-77
2021/11/28 07:37:52;;;;;;;70.45;24.92;;;;;;;2.70;100.00;99754.75;5161848;28;20057;-77
2021/11/28 07:40:22;;;;;;;74.25;26.52;;;;;;;2.70;100.00;99761.84;5161192;28;20065;-77
2021/11/28 07:42:53;;;;;;;79.07;26.58;;;;;;;2.70;100.00;99767.16;5159661;28;20073;-78
2021/11/28 07:45:23;;;;;;;74.30;27.13;;;;;;;2.77;100.00;99769.09;5160712;28;20034;-78
2021/11/28 07:47:54;;;;;;;78.57;26.10;;;;;;;2.80;100.00;99779.41;5159479;28;20118;-78
2021/11/28 07:50:24;;;;;;;80.47;28.17;;;;;;;2.79;100.00;99780.38;5160807;28;20105;-78
2021/11/28 07:52:55;;;;;;;73.22;25.50;;;;;;;2.86;100.00;99788.59;5160268;28;20565;-78
2021/11/28 07:55:25;;;;;;;81.60;27.88;;;;;;;2.94;100.00;99780.78;5160640;28;20030;-78
2021/11/28 07:57:57;;;;;;;85.00;28.98;;;;;;;2.92;100.00;99787.22;5157848;28;20081;-78
2021/11/28 08:00:28;;;;;;;82.10;29.85;;;;;;;2.89;100.00;99784.84;5161424;28;20026;-78
2021/11/28 08:02:59;;;;;;;87.65;31.05;;;;;;;2.83;100.00;99779.13;5168684;28;20037;-78
2021/11/28 08:05:31;;;;;;;79.22;29.65;;;;;;;2.92;100.00;99792.50;5165210;28;20029;-80
2021/11/28 08:08:04;;;;;;;78.80;28.77;;;;;;;3.00;100.00;99792.59;5186241;28;20367;-76
2021/11/28 08:10:34;;;;;;;85.40;28.85;;;;;;;2.96;100.00;99791.22;5188177;28;20052;-76
2021/11/28 08:13:05;;;;;;;84.10;29.08;;;;;;;2.90;100.00;99787.31;5183309;28;20001;-76
2021/11/28 08:15:35;;;;;;;85.30;28.98;;;;;;;2.91;100.00;99788.16;5183022;28;20038;-76
2021/11/28 08:18:06;;;;;;;80.68;28.48;;;;;;;2.84;100.00;99795.84;5163850;28;20034;-75
2021/11/28 08:20:36;;;;;;;89.57;30.45;;;;;;;2.85;100.00;99795.69;5164233;28;20113;-76
2021/11/28 08:23:07;;;;;;;85.70;28.58;;;;;;;2.98;100.00;99792.75;5164246;28;20021;-76
2021/11/28 08:25:37;;;;;;;85.78;29.55;;;;;;;3.03;100.00;99805.59;5162568;28;20022;-75
2021/11/28 08:28:09;;;;;;;83.28;30.00;;;;;;;3.16;100.00;99802.59;5162573;28;20042;-75
2021/11/28 08:30:41;;;;;;;84.75;28.40;;;;;;;3.26;100.00;99804.25;5163553;28;20023;-75
2021/11/28 08:33:11;;;;;;;88.50;29.30;;;;;;;3.77;100.00;99802.09;5163682;28;20018;-75
2021/11/28 08:35:42;;;;;;;76.32;26.85;;;;;;;4.07;100.00;99807.06;5163638;28;20034;-75
2021/11/28 08:38:14;;;;;;;78.43;28.77;;;;;;;4.45;100.00;99806.94;5179917;28;20022;-75
2021/11/28 08:40:44;;;;;;;79.47;29.23;;;;;;;4.88;100.00;99814.94;5174120;28;20030;-76
2021/11/28 08:43:15;;;;;;;71.72;27.05;;;;;;;5.29;100.00;99804.56;5181138;28;20451;-77
2021/11/28 08:45:45;;;;;;;68.38;26.77;;;;;;;5.72;100.00;99802.75;5183569;28;20026;-76
2021/11/28 08:48:16;;;;;;;61.92;24.52;;;;;;;6.53;100.00;99804.00;5182227;28;20017;-76
2021/11/28 08:50:47;;;;;;;58.28;23.92;;;;;;;7.22;100.00;99802.59;5183366;28;20029;-77
2021/11/28 08:53:18;;;;;;;50.92;22.55;;;;;;;7.47;100.00;99806.03;5183314;28;20025;-76
2021/11/28 08:55:49;;;;;;;54.33;24.27;;;;;;;8.11;100.00;99805.94;5183476;28;20053;-76
2021/11/28 08:58:19;;;;;;;54.80;23.80;;;;;;;8.45;100.00;99813.63;5175243;28;20069;-76
2021/11/28 09:00:50;;;;;;;56.40;23.55;;;;;;;8.97;100.00;99816.38;5170193;28;20040;-76
2021/11/28 09:03:20;;;;;;;49.35;22.50;;;;;;;8.80;100.00;99815.69;5171044;28;20022;-76
2021/11/28 09:05:51;;;;;;;48.17;23.58;;;;;;;9.29;100.00;99819.78;5172074;28;20508;-76
2021/11/28 09:08:23;;;;;;;51.45;23.27;;;;;;;9.18;100.00;99809.50;5171964;28;20044;-76
2021/11/28 09:10:53;;;;;;;49.20;23.10;;;;;;;9.49;100.00;99826.25;5175503;28;20342;-76
2021/11/28 09:13:23;;;;;;;50.35;22.83;;;;;;;9.23;100.00;99820.47;5184392;28;20018;-76
2021/11/28 09:15:54;;;;;;;45.53;22.23;;;;;;;9.25;100.00;99824.66;5184733;28;20023;-76
2021/11/28 09:18:32;;;;;;;43.50;21.25;;;;;;;8.82;100.00;99816.34;5177415;28;20033;-76
2021/11/28 09:21:03;;;;;;;47.17;22.33;;;;;;;8.35;100.00;99818.34;5172732;28;20029;-76
2021/11/28 09:26:23;;;;;;;49.15;22.88;;;;;;;7.32;100.00;99821.94;5172199;28;20041;-77
2021/11/28 09:28:54;;;;;;;45.80;22.33;;;;;;;7.04;100.00;99828.66;5172789;28;20022;-77
2021/11/28 09:31:25;;;;;;;56.88;24.42;;;;;;;6.87;100.00;99841.97;5171809;28;20433;-82
2021/11/28 09:33:55;;;;;;;47.60;21.83;;;;;;;7.06;100.00;99835.47;5172972;28;20030;-76
2021/11/28 09:36:28;;;;;;;54.03;22.38;;;;;;;7.34;100.00;99840.44;5172599;28;20026;-77
2021/11/28 09:39:04;;;;;;;54.30;22.92;;;;;;;7.16;100.00;99838.78;5171980;28;20030;-78
2021/11/28 09:41:35;;;;;;;;;;;;;;;7.06;100.00;99842.66;5172513;28;20022;-78
2021/11/28 09:44:09;;;;;;;52.80;22.92;;;;;;;6.96;100.00;99842.81;5171788;28;19913;-78
2021/11/28 09:46:39;;;;;;;55.10;23.25;;;;;;;7.09;100.00;99837.81;5170338;28;20098;-78
2021/11/28 09:49:13;;;;;;;49.72;22.00;;;;;;;7.86;100.00;99843.44;5172211;28;20029;-75
2021/11/28 09:51:46;;;;;;;46.33;20.90;;;;;;;7.79;100.00;99839.81;5168831;28;20114;-76
2021/11/28 09:54:18;;;;;;;47.90;21.60;;;;;;;7.70;100.00;99840.84;5170365;28;20032;-76
2021/11/28 09:56:50;;;;;;;41.55;19.98;;;;;;;7.24;100.00;99843.31;5169358;28;20553;-76
2021/11/28 09:59:22;;;;;;;41.83;18.05;;;;;;;6.98;100.00;99839.00;5169564;28;20113;-76
2021/11/28 10:01:54;;;;;;;37.33;16.67;;;;;;;7.00;100.00;99842.31;5172387;28;20030;-77
2021/11/28 10:04:24;;;;;;;37.58;16.77;;;;;;;6.84;100.00;99841.50;5193246;28;20026;-77
2021/11/28 10:06:55;;;;;;;36.90;16.65;;;;;;;6.60;100.00;99832.47;5171702;28;20029;-77
2021/11/28 10:09:26;;;;;;;31.40;13.05;;;;;;;6.38;100.00;99839.28;5155760;28;20168;-77
2021/11/28 10:12:14;;;;;;;31.95;13.77;;;;;;;6.30;100.00;99833.94;5170796;28;20026;-77
2021/11/28 10:14:48;;;;;;;29.77;13.82;;;;;;;6.46;100.00;99828.63;5153920;28;20129;-77
2021/11/28 10:17:21;;;;;;;26.60;12.40;;;;;;;6.47;100.00;99842.78;5171664;28;20014;-77
2021/11/28 10:19:51;;;;;;;29.98;13.32;;;;;;;6.32;100.00;99839.91;5170919;28;20473;-77
2021/11/28 10:22:22;;;;;;;33.70;14.85;;;;;;;6.34;100.00;99835.28;5169847;28;20026;-77
2021/11/28 10:25:04;;;;;;;32.88;14.73;;;;;;;6.30;100.00;99835.78;5170257;28;20040;-77
2021/11/28 10:27:39;;;;;;;31.83;15.40;;;;;;;6.39;100.00;99835.63;5170642;28;20141;-77
2021/11/28 10:30:14;;;;;;;30.88;12.88;;;;;;;6.39;100.00;99835.63;5171550;28;20080;-77
2021/11/28 10:32:49;;;;;;;26.60;11.98;;;;;;;6.23;100.00;99835.59;5170356;28;20033;-76
2021/11/28 10:35:21;;;;;;;23.63;11.13;;;;;;;6.31;100.00;99827.59;5170609;28;20392;-77
2021/11/28 10:37:53;;;;;;;25.77;11.65;;;;;;;6.61;100.00;99830.66;5170856;28;20113;-77
2021/11/28 10:40:27;;;;;;;25.55;10.20;;;;;;;6.95;100.00;99844.66;5172083;28;20032;-77
2021/11/28 10:43:11;;;;;;;23.92;9.82;;;;;;;6.59;100.00;99843.31;5169147;28;20018;-77
2021/11/28 10:45:48;;;;;;;24.38;10.70;;;;;;;6.31;100.00;99835.59;5175342;28;20029;-77
2021/11/28 10:48:27;;;;;;;23.63;11.57;;;;;;;6.04;100.00;99835.88;5162638;28;20454;-77
2021/11/28 10:51:00;;;;;;;24.02;10.40;;;;;;;5.93;100.00;99843.16;5181548;28;20420;-77
2021/11/28 10:53:31;;;;;;;20.98;9.38;;;;;;;5.83;100.00;99844.25;5163160;28;20022;-77
2021/11/28 10:56:01;;;;;;;20.85;10.07;;;;;;;5.70;100.00;99842.03;5170850;28;20040;-77
2021/11/28 10:58:32;;;;;;;28.25;11.30;;;;;;;5.62;100.00;99845.50;5175931;28;20065;-77
2021/11/28 11:01:05;;;;;;;26.42;11.55;;;;;;;5.56;100.00;99855.91;5173717;28;20033;-77
2021/11/28 11:03:38;;;;;;;31.25;13.55;;;;;;;5.43;100.00;99851.88;5173360;28;20374;-77
2021/11/28 11:06:15;;;;;;;28.98;12.88;;;;;;;5.37;100.00;99848.97;5159742;28;20028;-77
2021/11/28 11:08:50;;;;;;;26.48;11.02;;;;;;;5.29;100.00;99841.81;5167930;28;20030;-77
2021/11/28 11:11:21;;;;;;;25.10;11.00;;;;;;;5.32;100.00;99852.13;5164969;28;20036;-77
2021/11/28 11:14:01;;;;;;;27.52;11.90;;;;;;;5.26;100.00;99852.75;5180687;28;20493;-77
2021/11/28 11:16:43;;;;;;;26.15;10.82;;;;;;;5.10;100.00;99856.13;5174118;28;20031;-77
2021/11/28 11:19:27;;;;;;;26.05;11.20;;;;;;;5.02;100.00;99857.88;5173908;28;20030;-77
2021/11/28 11:22:12;;;;;;;27.40;12.10;;;;;;;4.92;100.00;99872.13;5161051;28;20049;-77
2021/11/28 11:24:51;;;;;;;31.77;13.43;;;;;;;4.81;100.00;99868.84;5168321;28;20030;-77
2021/11/28 11:27:33;;;;;;;31.35;13.68;;;;;;;4.87;100.00;99862.91;5165533;28;20691;-77
2021/11/28 11:30:04;;;;;;;31.75;13.48;;;;;;;4.86;100.00;99872.72;5160805;28;20030;-77
2021/11/28 11:32:40;;;;;;;30.83;13.65;;;;;;;4.83;100.00;99864.22;5160606;28;20094;-77
2021/11/28 11:35:28;;;;;;;34.55;13.77;;;;;;;4.82;100.00;99863.41;5179978;28;20503;-77
2021/11/28 11:38:03;;;;;;;35.50;15.45;;;;;;;4.86;100.00;99862.06;5165029;28;20084;-78
2021/11/28 11:40:34;;;;;;;36.50;14.43;;;;;;;4.85;100.00;99860.41;5165162;28;20030;-77
2021/11/28 11:43:04;;;;;;;35.08;13.93;;;;;;;4.82;100.00;99866.06;5163680;28;20033;-78
2021/11/28 11:45:37;;;;;;;36.78;15.43;;;;;;;4.80;100.00;99864.53;5164859;28;20030;-78